Time;durP1;ratioP1;P1;durP2;ratioP2;P2;SDS_P1;SDS_P2;PMS_P1;PMS_P2;Temp;Humidity;BMP_temperature;BMP_pressure;BME280_temperature;BME280_humidity;BME280_pressure;Samples;Min_cycle;Max_cycle;Signal;HPM_P1;HPM_P2
2021/12/01 00:00:51;;;;;;;11.48;4.28;;;11.00;99.90;;;;;;5086077;28;20079;-72
2021/12/01 00:03:18;;;;;;;13.50;4.10;;;11.00;99.90;;;;;;5094060;27;20086;-72
2021/12/01 00:05:47;;;;;;;10.63;3.78;;;11.00;99.90;;;;;;5103147;27;20519;-72
2021/12/01 00:08:16;;;;;;;6.35;3.83;;;11.00;99.90;;;;;;5104111;27;20090;-74
2021/12/01 00:10:44;;;;;;;10.70;3.55;;;11.00;99.90;;;;;;5103303;27;20142;-73
2021/12/01 00:13:14;;;;;;;9.38;5.07;;;10.80;99.90;;;;;;5082056;28;20090;-72
2021/12/01 00:15:44;;;;;;;14.93;3.80;;;11.00;99.90;;;;;;5083094;28;20082;-71
2021/12/01 00:18:12;;;;;;;12.10;4.00;;;11.00;99.90;;;;;;5102173;27;20139;-72
2021/12/01 00:20:40;;;;;;;8.07;2.83;;;11.10;99.90;;;;;;5102650;27;20083;-71
2021/12/01 00:23:08;;;;;;;11.95;3.72;;;11.00;99.90;;;;;;5101494;27;20083;-73
2021/12/01 00:25:39;;;;;;;13.13;3.05;;;11.10;99.90;;;;;;5086242;28;20167;-71
2021/12/01 00:28:08;;;;;;;5.90;2.53;;;11.10;99.90;;;;;;5100723;27;20488;-72
2021/12/01 00:30:54;;;;;;;10.75;2.70;;;11.10;99.90;;;;;;5101534;27;20083;-71
2021/12/01 00:33:41;;;;;;;10.88;2.80;;;11.00;99.90;;;;;;5104118;27;20075;-71
2021/12/01 00:36:29;;;;;;;8.35;2.15;;;11.00;99.90;;;;;;5103052;27;20071;-72
2021/12/01 00:38:56;;;;;;;7.80;2.10;;;11.00;99.90;;;;;;5102659;27;20604;-72
2021/12/01 00:41:24;;;;;;;6.80;2.53;;;11.10;99.90;;;;;;5103437;27;20086;-72
2021/12/01 00:43:52;;;;;;;5.00;1.52;;;11.10;99.90;;;;;;5102149;27;20079;-73
2021/12/01 00:46:24;;;;;;;8.48;3.20;;;11.10;99.90;;;;;;5106773;27;20072;-73
2021/12/01 00:48:52;;;;;;;4.15;1.90;;;11.10;99.90;;;;;;5102737;27;20075;-71
2021/12/01 00:51:19;;;;;;;3.10;1.45;;;11.10;99.90;;;;;;5105247;27;20090;-73
2021/12/01 00:53:47;;;;;;;5.30;1.67;;;11.10;99.90;;;;;;5100137;27;20747;-72
2021/12/01 00:56:14;;;;;;;4.55;1.42;;;11.20;99.90;;;;;;5085432;27;20086;-73
2021/12/01 00:58:42;;;;;;;3.67;1.75;;;11.20;99.90;;;;;;5083016;28;20127;-72
2021/12/01 01:01:09;;;;;;;6.65;1.30;;;11.20;99.90;;;;;;5105568;27;20459;-74
2021/12/01 01:03:37;;;;;;;4.50;1.35;;;11.30;99.90;;;;;;5079969;28;20158;-73
2021/12/01 01:06:05;;;;;;;5.35;1.15;;;11.30;99.90;;;;;;5108372;27;20075;-71
2021/12/01 01:08:33;;;;;;;2.42;1.20;;;11.20;99.90;;;;;;5101841;27;20722;-71
2021/12/01 01:16:23;;;;;;;5.85;1.30;;;11.20;99.90;;;;;;5103034;27;20083;-72
2021/12/01 01:18:51;;;;;;;2.85;1.35;;;11.20;99.90;;;;;;5101933;27;20094;-73
2021/12/01 01:21:19;;;;;;;1.25;0.90;;;11.10;99.90;;;;;;5103156;27;20078;-71
2021/12/01 01:23:47;;;;;;;10.70;1.50;;;11.50;99.90;;;;;;5083276;28;20079;-73
2021/12/01 01:26:17;;;;;;;3.17;1.30;;;11.10;99.90;;;;;;5101941;27;20075;-73
2021/12/01 01:28:44;;;;;;;9.50;1.23;;;11.10;99.90;;;;;;5103595;27;20459;-72
2021/12/01 01:31:13;;;;;;;1.88;1.02;;;11.10;99.90;;;;;;5101669;27;20078;-72
2021/12/01 01:33:41;;;;;;;5.07;1.55;;;11.10;99.90;;;;;;5094842;27;20075;-73
2021/12/01 01:36:09;;;;;;;1.42;1.30;;;11.60;99.90;;;;;;5101853;28;20786;-73
2021/12/01 01:38:37;;;;;;;3.60;1.20;;;11.30;99.90;;;;;;5087531;27;20142;-72
2021/12/01 01:41:08;;;;;;;6.15;1.20;;;11.10;99.90;;;;;;5102542;27;20462;-72
2021/12/01 01:43:36;;;;;;;3.13;1.10;;;11.10;99.90;;;;;;5099698;28;20071;-72
2021/12/01 01:46:05;;;;;;;4.30;1.17;;;11.10;99.90;;;;;;5100771;27;20071;-72
2021/12/01 01:48:44;;;;;;;1.40;1.30;;;11.10;99.90;;;;;;5102990;27;20436;-75
2021/12/01 01:51:12;;;;;;;2.17;0.90;;;11.20;99.90;;;;;;5100041;27;20090;-72
2021/12/01 01:53:40;;;;;;;4.07;1.00;;;11.10;99.90;;;;;;5100041;27;20738;-73
2021/12/01 01:56:08;;;;;;;2.97;1.27;;;11.20;99.90;;;;;;5101494;27;20118;-73
2021/12/01 01:58:35;;;;;;;1.65;1.00;;;11.20;99.90;;;;;;5081693;28;20707;-72
2021/12/01 02:01:12;;;;;;;1.00;0.90;;;11.20;99.90;;;;;;5083901;28;20094;-74
2021/12/01 02:03:42;;;;;;;2.58;0.98;;;11.20;99.90;;;;;;5098454;27;20139;-73
2021/12/01 02:06:13;;;;;;;4.97;1.27;;;11.20;99.90;;;;;;5103048;28;20083;-75
2021/12/01 02:08:42;;;;;;;1.95;0.80;;;11.20;99.90;;;;;;5096308;28;20138;-72
2021/12/01 02:11:11;;;;;;;1.38;0.90;;;11.10;99.90;;;;;;5101224;27;20959;-72
2021/12/01 02:13:41;;;;;;;3.67;1.35;;;11.20;99.90;;;;;;5098252;27;20134;-70
2021/12/01 02:16:09;;;;;;;7.20;1.48;;;11.10;99.90;;;;;;5086191;27;20079;-72
2021/12/01 02:18:39;;;;;;;3.08;0.88;;;11.50;99.90;;;;;;5099420;28;20166;-72
2021/12/01 02:21:14;;;;;;;1.38;0.95;;;11.10;99.90;;;;;;5084237;28;20159;-74
2021/12/01 02:23:45;;;;;;;6.80;1.27;;;11.10;99.90;;;;;;5101023;27;20091;-74
2021/12/01 02:26:15;;;;;;;3.88;1.17;;;11.00;99.90;;;;;;5102557;28;20126;-71
2021/12/01 02:28:46;;;;;;;3.45;1.85;;;10.20;99.90;;;;;;5101540;28;20090;-74
2021/12/01 02:31:14;;;;;;;1.73;0.73;;;11.00;99.90;;;;;;5102078;28;20130;-74
2021/12/01 02:33:42;;;;;;;2.75;1.15;;;11.00;99.90;;;;;;5095769;28;20091;-72
2021/12/01 02:36:11;;;;;;;4.05;1.27;;;11.00;99.90;;;;;;5101083;28;20138;-73
2021/12/01 02:38:40;;;;;;;4.75;1.17;;;10.90;99.90;;;;;;5102746;28;20131;-71
2021/12/01 02:41:09;;;;;;;3.47;1.75;;;10.90;99.90;;;;;;5101439;28;20078;-72
2021/12/01 02:43:38;;;;;;;7.03;2.60;;;10.90;99.90;;;;;;5102232;28;20075;-71
2021/12/01 02:46:06;;;;;;;2.47;1.23;;;10.90;99.90;;;;;;5099836;28;20093;-72
2021/12/01 02:48:41;;;;;;;5.88;1.33;;;10.90;99.90;;;;;;5103038;28;20478;-73
2021/12/01 02:51:11;;;;;;;3.78;1.83;;;10.90;99.90;;;;;;5068596;28;20142;-73
2021/12/01 02:53:40;;;;;;;2.70;1.17;;;10.90;99.90;;;;;;5079450;28;20094;-74
2021/12/01 02:56:09;;;;;;;4.88;1.27;;;10.80;99.90;;;;;;5100490;28;20075;-73
2021/12/01 02:58:40;;;;;;;5.25;1.77;;;10.30;99.90;;;;;;5102766;28;20147;-72
2021/12/01 03:01:11;;;;;;;5.47;1.30;;;10.80;99.90;;;;;;5082970;28;20079;-74
2021/12/01 03:03:40;;;;;;;4.70;1.48;;;10.80;99.90;;;;;;5081180;28;20816;-71
2021/12/01 03:06:08;;;;;;;2.95;1.50;;;10.80;99.90;;;;;;5099563;28;20074;-72
2021/12/01 03:08:36;;;;;;;6.53;1.60;;;11.10;99.90;;;;;;5100478;28;20131;-73
2021/12/01 03:11:04;;;;;;;6.20;1.67;;;10.70;99.90;;;;;;5101404;28;20079;-71
2021/12/01 03:13:32;;;;;;;8.52;2.75;;;10.60;99.90;;;;;;5099590;28;20079;-73
2021/12/01 03:16:00;;;;;;;7.22;2.05;;;10.60;99.90;;;;;;5084448;28;20086;-73
2021/12/01 03:18:28;;;;;;;8.50;1.90;;;11.20;99.90;;;;;;5097999;28;20150;-74
2021/12/01 03:20:57;;;;;;;12.52;1.67;;;10.60;99.90;;;;;;5101787;28;20087;-72
2021/12/01 03:23:26;;;;;;;5.25;1.90;;;10.60;99.90;;;;;;5096100;28;20139;-72
2021/12/01 03:25:54;;;;;;;5.80;1.70;;;10.60;99.90;;;;;;5103533;28;20071;-73
2021/12/01 03:28:22;;;;;;;5.38;1.90;;;10.60;99.90;;;;;;5082056;28;20576;-74
2021/12/01 03:30:49;;;;;;;10.55;1.90;;;10.60;99.90;;;;;;5068030;28;20086;-70
2021/12/01 03:33:19;;;;;;;7.57;2.33;;;10.50;99.90;;;;;;5101601;28;20485;-72
2021/12/01 03:35:49;;;;;;;5.15;1.70;;;10.50;99.90;;;;;;5102117;28;20091;-72
2021/12/01 03:38:19;;;;;;;3.63;1.55;;;10.90;99.90;;;;;;5103162;27;20114;-73
2021/12/01 03:40:47;;;;;;;4.07;1.55;;;10.60;99.90;;;;;;5087409;28;20075;-71
2021/12/01 03:43:15;;;;;;;3.90;1.10;;;10.70;99.90;;;;;;5085712;28;20071;-73
2021/12/01 03:45:44;;;;;;;6.03;1.48;;;10.70;99.90;;;;;;5105299;27;20253;-71
2021/12/01 03:48:11;;;;;;;7.30;1.90;;;10.70;99.90;;;;;;5102963;27;20071;-72
2021/12/01 03:50:40;;;;;;;5.50;2.55;;;10.60;99.90;;;;;;5103511;27;20075;-71
2021/12/01 03:53:07;;;;;;;6.70;1.80;;;10.60;99.90;;;;;;5084035;28;20086;-74
2021/12/01 03:55:35;;;;;;;3.83;2.40;;;10.60;99.90;;;;;;5103595;27;20086;-73
2021/12/01 03:58:03;;;;;;;10.38;1.83;;;10.70;99.90;;;;;;5104226;27;20071;-73
2021/12/01 04:00:31;;;;;;;6.20;2.50;;;10.60;99.90;;;;;;5102105;27;20071;-74
2021/12/01 04:02:59;;;;;;;11.75;2.40;;;10.00;99.90;;;;;;5103039;27;20075;-72
2021/12/01 04:05:27;;;;;;;8.70;2.80;;;10.60;99.90;;;;;;5085240;28;20122;-73
2021/12/01 04:07:55;;;;;;;4.40;1.67;;;10.70;99.90;;;;;;5103386;27;20986;-72
2021/12/01 04:10:23;;;;;;;4.28;2.00;;;10.70;99.90;;;;;;5102850;27;20683;-72
2021/12/01 04:12:51;;;;;;;9.32;2.15;;;10.70;99.90;;;;;;5099853;27;20853;-71
2021/12/01 04:15:18;;;;;;;15.45;3.28;;;10.70;99.90;;;;;;5080917;28;20086;-72
2021/12/01 04:17:46;;;;;;;7.03;2.78;;;10.70;99.90;;;;;;5085676;28;20087;-73
2021/12/01 04:20:16;;;;;;;6.10;2.30;;;10.70;99.90;;;;;;5086276;28;20082;-73
2021/12/01 04:22:45;;;;;;;7.15;2.65;;;10.70;99.90;;;;;;5101687;27;20150;-73
2021/12/01 04:25:13;;;;;;;6.60;3.00;;;11.30;99.90;;;;;;5105116;27;20082;-74
2021/12/01 04:27:40;;;;;;;4.90;2.47;;;10.70;99.90;;;;;;5102738;27;20071;-71
2021/12/01 04:30:12;;;;;;;6.80;2.70;;;10.90;99.90;;;;;;5085434;28;20078;-73
2021/12/01 04:32:39;;;;;;;9.07;2.50;;;10.80;99.90;;;;;;5100584;27;20083;-74
2021/12/01 04:35:08;;;;;;;7.28;3.05;;;10.70;99.90;;;;;;5088834;27;20081;-73
2021/12/01 04:37:36;;;;;;;5.28;2.55;;;10.80;99.90;;;;;;5085453;28;20086;-71
2021/12/01 04:40:05;;;;;;;4.63;2.53;;;10.80;99.90;;;;;;5103232;27;20741;-71
2021/12/01 04:42:33;;;;;;;8.07;2.65;;;10.90;99.90;;;;;;5100703;27;20075;-72
2021/12/01 04:45:06;;;;;;;10.55;3.78;;;11.00;99.90;;;;;;5084707;28;20075;-72
2021/12/01 04:47:38;;;;;;;9.48;2.90;;;10.90;99.90;;;;;;5085408;28;20075;-71
2021/12/01 04:50:06;;;;;;;8.23;2.55;;;10.80;99.90;;;;;;5102036;27;20083;-71
2021/12/01 04:52:33;;;;;;;8.25;2.80;;;11.00;99.90;;;;;;5102900;27;20529;-70
2021/12/01 04:55:01;;;;;;;13.27;4.22;;;11.00;99.90;;;;;;5100321;28;20534;-72
2021/12/01 04:57:29;;;;;;;10.90;2.70;;;11.00;99.90;;;;;;5085839;27;20082;-72
2021/12/01 04:59:56;;;;;;;11.18;3.35;;;12.10;99.90;;;;;;5101509;28;20139;-72
2021/12/01 05:02:24;;;;;;;6.97;2.42;;;11.00;99.90;;;;;;5105799;27;20079;-71
2021/12/01 05:04:51;;;;;;;8.75;2.83;;;11.00;99.90;;;;;;5101586;27;20085;-71
2021/12/01 05:07:19;;;;;;;9.50;3.53;;;11.10;99.90;;;;;;5106097;27;20082;-71
2021/12/01 05:09:46;;;;;;;7.53;2.60;;;11.10;99.90;;;;;;5098945;27;20189;-71
2021/12/01 05:12:14;;;;;;;13.73;3.00;;;11.10;99.90;;;;;;5101721;27;20146;-73
2021/12/01 05:14:41;;;;;;;3.38;1.90;;;11.10;99.90;;;;;;5099282;27;20456;-74
2021/12/01 05:17:09;;;;;;;3.15;1.20;;;11.10;99.90;;;;;;5101689;28;20229;-73
2021/12/01 05:19:36;;;;;;;12.95;2.28;;;11.10;99.90;;;;;;5080030;28;20130;-73
2021/12/01 05:22:05;;;;;;;8.50;1.88;;;11.10;99.90;;;;;;5102258;27;20075;-74
2021/12/01 05:24:33;;;;;;;3.00;2.03;;;11.10;99.90;;;;;;5101482;27;20071;-73
2021/12/01 05:27:01;;;;;;;2.33;1.73;;;11.10;99.90;;;;;;5101646;27;20079;-73
2021/12/01 05:29:28;;;;;;;2.78;1.17;;;11.10;99.90;;;;;;5108468;27;21987;-73
2021/12/01 05:31:57;;;;;;;2.70;1.30;;;11.20;99.90;;;;;;5102545;27;20075;-74
2021/12/01 05:34:25;;;;;;;1.55;1.10;;;11.10;99.90;;;;;;5102598;27;20087;-73
2021/12/01 05:36:54;;;;;;;2.25;1.30;;;11.10;99.90;;;;;;5103112;27;20075;-74
2021/12/01 05:39:22;;;;;;;4.10;1.35;;;11.20;99.90;;;;;;5083046;28;20067;-74
2021/12/01 05:41:50;;;;;;;3.60;1.58;;;11.00;99.90;;;;;;5069182;27;20063;-73
2021/12/01 05:44:18;;;;;;;1.08;1.00;;;11.10;99.90;;;;;;5099981;28;20119;-74
2021/12/01 05:46:45;;;;;;;5.30;1.08;;;11.10;99.90;;;;;;5086518;28;20102;-74
2021/12/01 05:49:13;;;;;;;3.70;1.40;;;11.00;99.90;;;;;;5081500;28;20102;-74
2021/12/01 05:51:40;;;;;;;2.72;1.23;;;11.10;99.90;;;;;;5104470;28;20169;-73
2021/12/01 05:54:08;;;;;;;1.70;1.08;;;11.00;99.90;;;;;;5101259;27;20095;-75
2021/12/01 05:56:36;;;;;;;1.95;1.20;;;11.00;99.90;;;;;;5087613;27;20098;-74
2021/12/01 05:59:03;;;;;;;3.83;1.95;;;11.00;99.90;;;;;;5082558;27;20193;-74
2021/12/01 06:01:31;;;;;;;5.82;1.15;;;10.30;99.90;;;;;;5085165;28;20082;-74
2021/12/01 06:03:59;;;;;;;2.63;0.80;;;10.90;99.90;;;;;;5099552;27;20083;-74
2021/12/01 06:06:26;;;;;;;1.48;0.80;;;10.80;99.90;;;;;;5083260;27;20059;-73
2021/12/01 06:08:55;;;;;;;4.68;1.00;;;10.80;99.90;;;;;;5099533;27;20545;-74
2021/12/01 06:11:23;;;;;;;1.80;1.00;;;10.70;99.90;;;;;;5103787;27;20505;-73
2021/12/01 06:13:52;;;;;;;2.40;0.80;;;10.80;99.90;;;;;;5100177;28;20075;-74
2021/12/01 06:16:21;;;;;;;1.85;1.23;;;11.10;99.90;;;;;;5083950;28;20154;-73
2021/12/01 06:18:50;;;;;;;3.22;0.88;;;10.70;99.90;;;;;;5084871;27;20081;-74
2021/12/01 06:21:17;;;;;;;3.28;1.00;;;10.70;99.90;;;;;;5083283;27;20142;-74
2021/12/01 06:23:45;;;;;;;2.50;0.90;;;10.70;99.90;;;;;;5086416;28;20099;-74
2021/12/01 06:26:12;;;;;;;2.03;1.02;;;10.70;99.90;;;;;;5101323;28;20510;-73
2021/12/01 06:28:40;;;;;;;3.17;1.10;;;10.60;99.90;;;;;;5104744;28;20074;-73
2021/12/01 06:31:08;;;;;;;1.05;0.95;;;11.30;99.90;;;;;;5099923;28;20166;-74
2021/12/01 06:33:36;;;;;;;3.85;0.90;;;10.40;99.90;;;;;;5084141;28;20082;-73
2021/12/01 06:36:04;;;;;;;4.38;1.05;;;10.40;99.90;;;;;;5081466;28;20067;-73
2021/12/01 06:38:32;;;;;;;3.72;0.85;;;10.40;99.90;;;;;;5101904;28;20075;-73
2021/12/01 06:41:00;;;;;;;0.93;0.85;;;10.30;99.90;;;;;;5099142;28;20138;-73
2021/12/01 06:43:28;;;;;;;3.67;0.90;;;10.80;99.90;;;;;;5097144;28;20094;-74
2021/12/01 06:45:55;;;;;;;0.90;0.80;;;10.20;99.90;;;;;;5078470;28;20145;-73
2021/12/01 06:48:23;;;;;;;2.42;1.10;;;10.20;99.90;;;;;;5082619;28;20082;-75
2021/12/01 06:50:51;;;;;;;2.30;0.88;;;10.10;99.90;;;;;;5083759;28;20083;-73
2021/12/01 06:53:19;;;;;;;0.85;0.60;;;10.10;99.90;;;;;;5098227;28;20079;-74
2021/12/01 06:55:47;;;;;;;1.73;0.70;;;10.00;99.90;;;;;;5100974;28;20090;-73
2021/12/01 06:58:14;;;;;;;0.90;0.70;;;10.00;99.90;;;;;;5101003;28;20105;-73
2021/12/01 07:00:42;;;;;;;0.93;0.70;;;10.00;99.90;;;;;;5085572;28;20150;-73
2021/12/01 07:03:10;;;;;;;1.02;0.90;;;9.90;99.90;;;;;;5098596;28;20090;-75
2021/12/01 07:05:37;;;;;;;1.88;1.15;;;9.90;99.90;;;;;;5101297;28;20134;-74
2021/12/01 07:08:05;;;;;;;2.38;0.80;;;9.80;99.90;;;;;;5100403;28;20083;-73
2021/12/01 07:10:33;;;;;;;4.22;1.10;;;9.80;99.90;;;;;;5100841;28;20075;-74
2021/12/01 07:13:42;;;;;;;4.90;1.02;;;9.80;99.90;;;;;;5085223;27;20529;-74
2021/12/01 07:17:17;;;;;;;1.52;0.80;;;9.70;99.90;;;;;;4994753;28;20058;-74
2021/12/01 07:20:20;;;;;;;0.82;0.80;;;9.70;99.90;;;;;;5031059;28;20903;-74
2021/12/01 07:22:52;;;;;;;3.28;0.70;;;9.70;99.90;;;;;;5069682;28;20071;-74
2021/12/01 07:25:20;;;;;;;4.88;0.90;;;9.60;99.90;;;;;;5086862;28;20074;-75
2021/12/01 07:27:48;;;;;;;0.95;0.95;;;9.60;99.90;;;;;;5085541;28;20454;-77
2021/12/01 07:30:15;;;;;;;0.80;0.80;;;9.60;99.90;;;;;;5088191;27;20083;-79
2021/12/01 07:32:43;;;;;;;2.33;0.80;;;9.60;99.90;;;;;;5098632;27;20105;-78
2021/12/01 07:35:10;;;;;;;1.67;0.80;;;10.20;99.90;;;;;;5092575;28;20071;-79
2021/12/01 07:37:38;;;;;;;0.73;0.73;;;9.60;99.90;;;;;;5109394;27;20117;-76
2021/12/01 07:40:07;;;;;;;0.77;0.68;;;9.50;99.90;;;;;;5075901;28;20083;-76
2021/12/01 07:42:37;;;;;;;2.55;1.73;;;9.50;99.90;;;;;;5082590;27;20143;-77
2021/12/01 07:45:05;;;;;;;1.98;0.95;;;9.50;99.90;;;;;;5091609;27;20130;-76
2021/12/01 07:47:33;;;;;;;1.23;0.80;;;9.50;99.90;;;;;;5091077;28;20094;-77
2021/12/01 07:50:03;;;;;;;7.75;1.85;;;9.50;99.90;;;;;;5087736;27;20631;-77
2021/12/01 07:52:32;;;;;;;1.65;0.95;;;9.40;99.90;;;;;;5103600;27;20093;-76
2021/12/01 07:54:59;;;;;;;3.80;1.20;;;9.50;99.90;;;;;;5083250;27;20098;-74
2021/12/01 07:57:27;;;;;;;3.53;1.13;;;9.50;99.90;;;;;;5103704;27;20138;-78
2021/12/01 07:59:54;;;;;;;2.60;1.27;;;9.50;99.90;;;;;;5103757;27;20139;-76
2021/12/01 08:02:22;;;;;;;1.60;1.15;;;8.80;99.90;;;;;;5079969;28;20139;-78
2021/12/01 08:04:49;;;;;;;0.93;0.80;;;9.60;99.90;;;;;;5088421;28;20792;-78
2021/12/01 08:07:18;;;;;;;3.55;1.05;;;9.50;99.90;;;;;;5069314;28;20075;-77
2021/12/01 08:09:46;;;;;;;1.88;1.05;;;9.50;99.90;;;;;;5087517;27;20452;-77
2021/12/01 08:12:14;;;;;;;1.10;1.02;;;9.50;99.90;;;;;;5080603;28;20138;-78
2021/12/01 08:14:41;;;;;;;5.22;1.10;;;9.50;99.90;;;;;;5087523;28;20079;-76
2021/12/01 08:17:09;;;;;;;2.08;0.80;;;9.40;99.90;;;;;;5085117;28;20138;-77
2021/12/01 08:19:36;;;;;;;2.38;1.00;;;9.50;99.90;;;;;;5102660;27;20483;-77
2021/12/01 08:22:06;;;;;;;0.93;0.80;;;9.50;99.90;;;;;;5086577;28;20139;-76
2021/12/01 08:24:34;;;;;;;1.27;1.17;;;9.50;99.90;;;;;;5103175;27;20135;-76
2021/12/01 08:27:01;;;;;;;2.72;1.17;;;9.40;99.90;;;;;;5093859;28;20043;-77
2021/12/01 08:29:31;;;;;;;0.77;0.77;;;9.40;99.90;;;;;;5083665;28;20126;-78
2021/12/01 08:31:59;;;;;;;1.25;1.15;;;9.40;99.90;;;;;;5105050;27;20093;-77
2021/12/01 08:34:27;;;;;;;0.90;0.90;;;9.40;99.90;;;;;;5083411;28;20162;-78
2021/12/01 08:36:55;;;;;;;1.63;0.88;;;9.50;99.90;;;;;;5089240;27;20527;-78
2021/12/01 08:39:23;;;;;;;1.85;0.98;;;9.40;99.90;;;;;;5086587;28;20075;-77
2021/12/01 08:41:50;;;;;;;1.45;1.05;;;9.40;99.90;;;;;;5074118;28;20147;-77
2021/12/01 08:44:18;;;;;;;1.33;1.20;;;9.40;99.90;;;;;;5085270;28;20501;-77
2021/12/01 08:46:45;;;;;;;1.23;0.85;;;9.40;99.90;;;;;;5107424;27;20546;-76
2021/12/01 08:49:13;;;;;;;1.95;1.20;;;9.20;99.90;;;;;;5072601;28;20074;-77
2021/12/01 08:51:41;;;;;;;1.77;0.90;;;9.30;99.90;;;;;;5070790;27;20086;-78
2021/12/01 08:54:13;;;;;;;2.58;1.05;;;9.30;99.90;;;;;;5082738;27;20161;-76
2021/12/01 08:56:42;;;;;;;5.50;1.52;;;9.30;99.90;;;;;;5083748;27;20593;-77
2021/12/01 08:59:09;;;;;;;2.55;1.10;;;9.30;99.90;;;;;;5050582;27;20079;-75
2021/12/01 09:01:38;;;;;;;3.17;1.23;;;9.30;99.90;;;;;;5068240;28;20150;-75
2021/12/01 09:04:06;;;;;;;1.40;1.30;;;9.50;99.90;;;;;;5103148;27;20079;-74
2021/12/01 09:06:37;;;;;;;2.40;1.00;;;9.30;99.90;;;;;;5103990;27;20094;-76
2021/12/01 09:09:05;;;;;;;6.10;1.73;;;9.30;99.90;;;;;;5084208;28;20083;-75
2021/12/01 09:11:32;;;;;;;4.50;1.13;;;9.30;99.90;;;;;;5102992;27;20079;-76
2021/12/01 09:14:00;;;;;;;3.60;1.38;;;9.30;99.90;;;;;;5102480;27;20137;-76
2021/12/01 09:16:27;;;;;;;10.73;1.75;;;9.30;99.90;;;;;;5070340;28;20722;-76
2021/12/01 09:18:55;;;;;;;2.35;1.00;;;9.30;99.90;;;;;;5085893;27;20538;-75
2021/12/01 09:21:22;;;;;;;4.70;1.25;;;9.40;99.90;;;;;;5104695;27;20063;-75
2021/12/01 09:23:50;;;;;;;6.13;1.35;;;9.40;99.90;;;;;;5083750;27;20071;-75
2021/12/01 09:26:17;;;;;;;4.45;1.35;;;9.40;99.90;;;;;;5111504;27;20087;-75
2021/12/01 09:28:46;;;;;;;3.00;1.70;;;9.10;99.90;;;;;;5066420;28;20522;-75
2021/12/01 09:31:14;;;;;;;3.45;1.77;;;9.40;99.90;;;;;;5105531;27;20083;-76
2021/12/01 09:33:42;;;;;;;5.63;1.75;;;9.40;99.90;;;;;;5100895;27;20087;-76
2021/12/01 09:36:09;;;;;;;4.70;1.90;;;9.40;99.90;;;;;;5087652;27;20083;-75
2021/12/01 09:38:37;;;;;;;4.10;1.35;;;9.50;99.90;;;;;;5087677;28;20139;-76
2021/12/01 09:41:04;;;;;;;7.28;2.83;;;9.50;99.90;;;;;;5086671;28;20130;-75
2021/12/01 09:43:33;;;;;;;3.20;1.55;;;9.50;99.90;;;;;;5088133;28;20680;-74
2021/12/01 09:46:04;;;;;;;8.50;2.22;;;9.50;99.90;;;;;;5103897;27;20535;-75
2021/12/01 09:48:37;;;;;;;9.65;2.20;;;9.50;99.90;;;;;;5086892;28;20090;-75
2021/12/01 09:51:14;;;;;;;11.68;2.65;;;9.50;99.90;;;;;;5103235;28;20071;-74
2021/12/01 09:53:43;;;;;;;4.65;1.65;;;9.60;99.90;;;;;;5103066;28;20088;-75
2021/12/01 09:56:11;;;;;;;3.63;1.58;;;9.50;99.90;;;;;;5088136;28;20083;-75
2021/12/01 09:58:39;;;;;;;9.48;3.05;;;9.50;99.90;;;;;;5103454;28;20079;-75
2021/12/01 10:01:10;;;;;;;5.00;1.50;;;9.50;99.90;;;;;;5087639;27;20114;-76
2021/12/01 10:03:40;;;;;;;6.40;1.90;;;9.50;99.90;;;;;;5088667;28;20079;-76
2021/12/01 10:06:12;;;;;;;7.93;2.33;;;9.60;99.90;;;;;;5084767;27;20090;-77
2021/12/01 10:08:45;;;;;;;5.32;2.05;;;9.30;99.90;;;;;;5086546;27;20082;-76
2021/12/01 10:11:20;;;;;;;9.43;2.00;;;9.70;99.90;;;;;;5104704;27;20083;-76
2021/12/01 10:13:55;;;;;;;8.82;2.40;;;9.70;99.90;;;;;;5087479;28;20079;-75
2021/12/01 10:16:25;;;;;;;11.25;2.30;;;9.70;99.90;;;;;;5103507;27;20079;-75
2021/12/01 10:18:56;;;;;;;7.88;1.85;;;9.70;99.90;;;;;;5084067;28;20126;-76
2021/12/01 10:21:28;;;;;;;9.40;2.00;;;9.70;99.90;;;;;;5070522;28;20106;-76
2021/12/01 10:24:07;;;;;;;6.93;1.90;;;9.70;99.90;;;;;;5100615;27;20474;-77
2021/12/01 10:26:40;;;;;;;13.43;2.90;;;9.80;99.90;;;;;;5083507;28;20083;-77
2021/12/01 10:29:16;;;;;;;8.30;2.50;;;9.80;99.90;;;;;;5101118;28;20059;-78
2021/12/01 10:31:48;;;;;;;6.30;2.30;;;9.80;99.90;;;;;;5084562;28;20518;-76
2021/12/01 10:34:35;;;;;;;13.48;3.17;;;9.80;99.90;;;;;;5099868;28;20559;-77
2021/12/01 10:37:31;;;;;;;5.80;1.83;;;10.40;99.90;;;;;;5082798;28;20157;-77
2021/12/01 10:40:08;;;;;;;13.23;4.95;;;9.90;99.90;;;;;;5084273;28;20086;-76
2021/12/01 10:43:14;;;;;;;7.72;3.47;;;9.80;99.90;;;;;;5098628;28;21426;-76
2021/12/01 10:45:48;;;;;;;11.75;2.70;;;9.80;99.90;;;;;;5102862;28;20106;-75
2021/12/01 10:48:25;;;;;;;7.05;2.08;;;9.90;99.90;;;;;;5100677;28;20091;-76
2021/12/01 10:50:53;;;;;;;8.57;2.10;;;9.80;99.90;;;;;;5102458;28;20075;-75
2021/12/01 10:53:23;;;;;;;12.57;2.33;;;9.70;99.90;;;;;;5098294;28;20086;-77
2021/12/01 10:55:58;;;;;;;7.55;2.45;;;9.70;99.90;;;;;;5103021;28;20083;-76
2021/12/01 10:58:40;;;;;;;6.50;2.22;;;9.80;99.90;;;;;;5097525;28;20459;-75
2021/12/01 11:01:23;;;;;;;6.85;2.63;;;9.70;99.90;;;;;;5102518;28;20072;-77
2021/12/01 11:03:52;;;;;;;9.75;3.40;;;9.80;99.90;;;;;;5083088;28;20079;-76
2021/12/01 11:06:22;;;;;;;4.38;2.17;;;9.90;99.90;;;;;;5100890;28;20101;-76
2021/12/01 11:08:55;;;;;;;7.90;2.00;;;9.90;99.90;;;;;;5099084;28;20522;-75
2021/12/01 11:11:38;;;;;;;6.18;2.60;;;10.00;99.90;;;;;;5099547;28;20472;-76
2021/12/01 11:14:26;;;;;;;13.88;2.25;;;10.10;99.90;;;;;;5085146;28;20586;-74
2021/12/01 11:16:53;;;;;;;7.50;3.05;;;10.10;99.90;;;;;;5083035;28;20801;-76
2021/12/01 11:19:33;;;;;;;6.38;2.05;;;10.00;99.90;;;;;;5066852;28;20142;-75
2021/12/01 11:22:26;;;;;;;9.23;2.10;;;10.00;99.90;;;;;;5083900;28;20143;-74
2021/12/01 11:25:22;;;;;;;7.63;2.35;;;10.10;99.90;;;;;;5088369;28;20082;-73
2021/12/01 11:27:49;;;;;;;8.00;1.92;;;10.20;99.90;;;;;;5099150;28;20075;-74
2021/12/01 11:30:17;;;;;;;10.05;2.05;;;10.10;99.90;;;;;;5085197;28;20087;-75
2021/12/01 11:33:04;;;;;;;8.60;2.47;;;10.10;99.90;;;;;;5079457;28;20163;-74
2021/12/01 11:35:31;;;;;;;10.70;2.22;;;10.10;99.90;;;;;;5097438;28;20159;-73
2021/12/01 11:37:59;;;;;;;11.50;4.00;;;10.10;99.90;;;;;;5080482;28;20143;-77
2021/12/01 11:40:33;;;;;;;5.88;2.13;;;10.00;99.90;;;;;;5104905;28;20082;-77
2021/12/01 11:43:10;;;;;;;8.95;2.22;;;10.00;99.90;;;;;;5091607;28;20082;-76
2021/12/01 11:45:41;;;;;;;7.93;2.78;;;10.00;99.90;;;;;;5092673;28;20082;-73
2021/12/01 11:48:12;;;;;;;10.88;2.80;;;10.80;99.90;;;;;;5095617;28;20075;-74
2021/12/01 11:50:53;;;;;;;5.75;1.95;;;10.10;99.90;;;;;;5075243;28;20098;-74
2021/12/01 11:53:33;;;;;;;14.55;2.47;;;10.10;99.90;;;;;;5069312;28;20098;-74
2021/12/01 11:56:20;;;;;;;7.05;2.30;;;10.10;99.90;;;;;;5092188;28;20105;-74
2021/12/01 11:58:52;;;;;;;;;;;10.20;99.90;;;;;;5090943;28;20086;-74
2021/12/01 12:01:20;;;;;;;7.53;2.67;;;10.20;99.90;;;;;;5089196;27;19969;-76
2021/12/01 12:03:53;;;;;;;5.13;1.80;;;10.20;99.90;;;;;;5099381;27;20163;-76
2021/12/01 12:06:23;;;;;;;11.13;2.88;;;10.30;99.90;;;;;;5091877;27;20086;-76
2021/12/01 12:09:05;;;;;;;9.90;2.50;;;9.80;99.90;;;;;;5102048;27;20110;-77
2021/12/01 12:11:36;;;;;;;10.77;2.53;;;10.30;99.90;;;;;;5086838;28;20094;-74
2021/12/01 12:14:13;;;;;;;11.00;2.53;;;10.20;99.90;;;;;;5079805;28;20166;-75
2021/12/01 12:17:00;;;;;;;11.32;2.58;;;10.20;99.90;;;;;;5100367;27;20147;-74
2021/12/01 12:20:03;;;;;;;11.38;2.78;;;10.20;99.90;;;;;;5081062;28;20877;-76
2021/12/01 12:22:38;;;;;;;9.57;2.55;;;10.20;99.90;;;;;;5053897;27;20467;-75
2021/12/01 12:25:11;;;;;;;9.15;3.15;;;10.80;99.90;;;;;;5100649;27;20126;-75
2021/12/01 12:27:47;;;;;;;15.02;2.97;;;10.20;99.90;;;;;;5101318;27;20079;-75
2021/12/01 12:30:30;;;;;;;7.25;2.33;;;10.30;99.90;;;;;;5081732;27;20477;-76
2021/12/01 12:33:16;;;;;;;6.22;2.15;;;10.40;99.90;;;;;;5081523;27;20090;-75
2021/12/01 12:35:47;;;;;;;11.70;3.58;;;10.40;99.90;;;;;;5081449;28;20163;-76
2021/12/01 12:38:15;;;;;;;10.20;2.40;;;10.40;99.90;;;;;;5103524;27;20086;-75
2021/12/01 12:40:43;;;;;;;8.80;3.03;;;10.30;99.90;;;;;;5084858;28;20082;-78
2021/12/01 12:43:28;;;;;;;8.48;2.20;;;10.30;99.90;;;;;;5101278;28;20135;-76
2021/12/01 12:46:17;;;;;;;11.55;4.47;;;10.40;99.90;;;;;;5101351;27;20075;-77
2021/12/01 12:48:51;;;;;;;7.78;2.05;;;10.40;99.90;;;;;;5097332;27;20541;-77
2021/12/01 12:51:18;;;;;;;8.15;1.98;;;10.40;99.90;;;;;;5081598;27;20075;-77
2021/12/01 12:54:03;;;;;;;9.55;2.33;;;10.40;99.90;;;;;;5086488;27;20090;-74
2021/12/01 12:56:39;;;;;;;9.32;3.10;;;10.40;99.90;;;;;;5088138;28;20082;-74
2021/12/01 12:59:31;;;;;;;15.10;3.20;;;10.40;99.90;;;;;;5103682;27;20536;-75
2021/12/01 13:02:07;;;;;;;8.38;2.22;;;11.10;99.90;;;;;;5054424;27;20651;-75
2021/12/01 13:04:47;;;;;;;;;;;10.40;99.90;;;;;;5083232;28;20072;-75
2021/12/01 13:07:34;;;;;;;6.82;3.13;;;10.20;99.90;;;;;;5099549;27;20006;-73
2021/12/01 13:10:03;;;;;;;12.15;3.92;;;10.50;99.90;;;;;;5084106;28;20139;-75
2021/12/01 13:12:42;;;;;;;10.45;2.35;;;10.50;99.90;;;;;;5098145;27;20475;-76